Time;durP1;ratioP1;P1;durP2;ratioP2;P2;SDS_P1;SDS_P2;PMS_P1;PMS_P2;Temp;Humidity;BMP_temperature;BMP_pressure;BME280_temperature;BME280_humidity;BME280_pressure;Samples;Min_cycle;Max_cycle;Signal;HPM_P1;HPM_P2
2023/01/22 00:02:17;;;;;;;57.30;34.97;;;;;;;-1.05;100.00;160301.91;5048101;28;20041;-68
2023/01/22 00:04:42;;;;;;;50.53;34.78;;;;;;;-0.99;100.00;160317.97;5053725;28;20020;-66
2023/01/22 00:07:08;;;;;;;55.92;33.80;;;;;;;-0.97;100.00;160323.34;5068669;28;20048;-66
2023/01/22 00:09:33;;;;;;;48.60;33.15;;;;;;;-0.92;100.00;160334.03;5069356;28;20048;-65
2023/01/22 00:11:58;;;;;;;48.70;32.63;;;;;;;-0.88;100.00;160346.09;5057043;28;20090;-65
2023/01/22 00:14:24;;;;;;;50.50;30.85;;;;;;;-0.85;100.00;160354.16;5050263;28;20017;-65
2023/01/22 00:16:49;;;;;;;47.47;32.67;;;;;;;-0.80;100.00;160366.22;5037560;28;20045;-65
2023/01/22 00:19:14;;;;;;;44.22;27.95;;;;;;;-0.76;100.00;160376.91;5033299;28;20087;-65
2023/01/22 00:21:40;;;;;;;47.60;33.03;;;;;;;-0.76;100.00;160376.91;5044964;28;20116;-65
2023/01/22 00:24:05;;;;;;;44.83;29.63;;;;;;;-0.78;100.00;160370.22;5053021;28;20021;-65
2023/01/22 00:26:31;;;;;;;46.60;31.02;;;;;;;-0.72;100.00;160387.63;5051361;28;20041;-65
2023/01/22 00:28:56;;;;;;;44.20;31.38;;;;;;;-0.71;100.00;160390.28;5053500;28;20028;-65
2023/01/22 00:31:22;;;;;;;45.38;30.08;;;;;;;-0.74;100.00;160382.28;5070864;28;20041;-65
2023/01/22 00:33:47;;;;;;;48.15;29.85;;;;;;;-0.76;100.00;160376.91;5072319;28;20486;-65
2023/01/22 00:36:15;;;;;;;37.10;27.42;;;;;;;-0.77;100.00;160374.22;5041853;28;20042;-65
2023/01/22 00:38:41;;;;;;;45.97;31.00;;;;;;;-0.77;100.00;160372.88;5052834;28;20035;-65
2023/01/22 00:41:07;;;;;;;38.55;30.58;;;;;;;-0.80;100.00;160366.22;5051763;28;20127;-65
2023/01/22 00:43:34;;;;;;;43.75;29.23;;;;;;;-0.83;100.00;160358.16;5052804;28;20092;-65
2023/01/22 00:46:00;;;;;;;41.75;27.52;;;;;;;-0.85;100.00;160352.78;5051071;28;20037;-64
2023/01/22 00:48:26;;;;;;;42.05;29.42;;;;;;;-0.89;100.00;160342.09;5052621;28;20408;-66
2023/01/22 00:50:51;;;;;;;48.88;30.90;;;;;;;-0.85;100.00;160352.78;5051176;28;20040;-66
2023/01/22 00:53:16;;;;;;;44.42;31.13;;;;;;;-0.84;100.00;160356.81;5052339;28;20055;-66
2023/01/22 00:55:55;;;;;;;47.83;31.60;;;;;;;-0.80;100.00;160366.22;5051226;28;20099;-66
2023/01/22 00:58:20;;;;;;;44.25;32.60;;;;;;;-0.80;100.00;160366.22;5052363;28;20025;-65
2023/01/22 01:00:46;;;;;;;54.70;32.50;;;;;;;-0.77;100.00;160374.22;5050950;28;20048;-66
2023/01/22 01:03:30;;;;;;;42.60;33.35;;;;;;;-0.76;100.00;160376.91;5052291;28;20487;-66
2023/01/22 01:05:57;;;;;;;36.45;25.77;;;;;;;-0.77;100.00;160374.22;5051180;28;20451;-66
2023/01/22 01:08:24;;;;;;;40.47;28.65;;;;;;;-0.70;100.00;160392.97;5051597;28;20051;-66
2023/01/22 01:11:01;;;;;;;38.03;26.65;;;;;;;-0.69;100.00;160395.66;5051315;28;20088;-66
2023/01/22 01:13:29;;;;;;;34.35;25.30;;;;;;;-0.65;100.00;160406.38;5050620;28;20096;-66
2023/01/22 01:16:02;;;;;;;37.85;27.70;;;;;;;-0.63;100.00;160409.06;5050509;28;20045;-66
2023/01/22 01:18:29;;;;;;;35.92;24.17;;;;;;;-0.60;100.00;160417.09;5051945;28;20024;-66
2023/01/22 01:20:56;;;;;;;34.85;28.63;;;;;;;-0.62;100.00;160413.06;5050760;28;20500;-66
2023/01/22 01:23:23;;;;;;;39.85;27.15;;;;;;;-0.62;100.00;160411.72;5050584;28;20057;-66
2023/01/22 01:25:49;;;;;;;36.53;25.67;;;;;;;-0.61;100.00;160415.75;5050465;28;20048;-65
2023/01/22 01:28:14;;;;;;;35.22;26.20;;;;;;;-0.60;100.00;160417.09;5051853;28;20025;-66
2023/01/22 01:30:39;;;;;;;44.13;24.38;;;;;;;-0.63;100.00;160409.06;5050507;28;20563;-66
2023/01/22 01:33:05;;;;;;;36.63;26.77;;;;;;;-0.59;100.00;160419.78;5051736;28;20021;-66
2023/01/22 01:35:30;;;;;;;35.55;22.50;;;;;;;-0.58;100.00;160422.47;5050475;28;20530;-68
2023/01/22 01:37:56;;;;;;;28.10;22.55;;;;;;;-0.60;100.00;160418.44;5051495;28;20028;-69
2023/01/22 01:40:21;;;;;;;30.92;20.95;;;;;;;-0.61;100.00;160415.75;5050310;28;20360;-68
2023/01/22 01:42:46;;;;;;;32.58;20.50;;;;;;;-0.56;100.00;160427.81;5051827;28;20025;-67
2023/01/22 01:45:25;;;;;;;28.73;22.83;;;;;;;-0.57;100.00;160425.13;5054585;28;20047;-66
2023/01/22 01:47:57;;;;;;;25.20;20.02;;;;;;;-0.60;100.00;160417.09;5071278;28;20533;-67
2023/01/22 01:50:25;;;;;;;30.73;22.55;;;;;;;-0.57;100.00;160425.13;5070298;28;20037;-69
2023/01/22 01:52:50;;;;;;;26.13;20.25;;;;;;;-0.56;100.00;160427.81;5051433;28;20024;-69
2023/01/22 01:55:21;;;;;;;33.05;20.83;;;;;;;-0.58;100.00;160422.47;5049715;28;20028;-66
2023/01/22 01:57:47;;;;;;;28.85;21.05;;;;;;;-0.58;100.00;160422.47;5051590;28;20024;-67
2023/01/22 02:00:13;;;;;;;40.63;27.73;;;;;;;-0.57;100.00;160425.13;5049217;28;20025;-67
2023/01/22 02:02:40;;;;;;;28.05;20.95;;;;;;;-0.56;100.00;160427.81;5051659;28;20028;-66
2023/01/22 02:05:07;;;;;;;34.17;24.30;;;;;;;-0.58;100.00;160422.47;5050198;28;20108;-65
2023/01/22 02:07:32;;;;;;;32.53;25.00;;;;;;;-0.61;100.00;160415.75;5050847;28;20427;-66
2023/01/22 02:09:58;;;;;;;37.72;26.70;;;;;;;-0.62;100.00;160411.72;5051279;28;20114;-67
2023/01/22 02:12:23;;;;;;;32.65;22.63;;;;;;;-0.67;100.00;160399.69;5049824;28;20048;-67
2023/01/22 02:14:49;;;;;;;35.25;25.75;;;;;;;-0.62;100.00;160411.72;5045419;28;20029;-66
2023/01/22 02:17:20;;;;;;;36.55;26.17;;;;;;;-0.64;100.00;160407.72;5050540;28;20041;-66
2023/01/22 02:19:46;;;;;;;34.58;24.38;;;;;;;-0.63;100.00;160409.06;5051091;28;20025;-67
2023/01/22 02:22:12;;;;;;;31.98;26.38;;;;;;;-0.61;100.00;160415.75;5048746;28;20130;-67
2023/01/22 02:24:38;;;;;;;30.35;24.23;;;;;;;-0.63;100.00;160409.06;5051049;28;20495;-67
2023/01/22 02:27:03;;;;;;;33.15;24.17;;;;;;;-0.63;100.00;160409.06;5049522;28;20045;-67
2023/01/22 02:29:28;;;;;;;34.65;25.08;;;;;;;-0.63;100.00;160410.38;5050343;28;20025;-67
2023/01/22 02:31:54;;;;;;;49.60;26.27;;;;;;;-0.65;100.00;160406.38;5049614;28;20522;-67
2023/01/22 02:34:23;;;;;;;36.75;23.08;;;;;;;-0.66;100.00;160403.69;5050442;28;20380;-66
2023/01/22 02:36:49;;;;;;;30.13;22.38;;;;;;;-0.63;100.00;160409.06;5049115;28;20114;-66
2023/01/22 02:39:14;;;;;;;30.63;25.10;;;;;;;-0.67;100.00;160401.03;5050676;28;20028;-66
2023/01/22 02:41:39;;;;;;;35.78;27.45;;;;;;;-0.70;100.00;160392.97;5049267;28;20049;-65
2023/01/22 02:44:06;;;;;;;30.67;25.38;;;;;;;-0.67;100.00;160399.69;5050316;28;20434;-66
2023/01/22 02:46:32;;;;;;;32.88;23.67;;;;;;;-0.67;100.00;160399.69;5049219;28;20045;-66
2023/01/22 02:48:57;;;;;;;31.98;23.50;;;;;;;-0.74;100.00;160382.28;5050782;28;20384;-65
2023/01/22 02:51:22;;;;;;;30.95;24.42;;;;;;;-0.69;100.00;160394.31;5048670;28;20084;-66
2023/01/22 02:53:48;;;;;;;32.00;22.17;;;;;;;-0.71;100.00;160390.28;5051052;28;20028;-66
2023/01/22 02:56:13;;;;;;;31.90;25.17;;;;;;;-0.70;100.00;160391.63;5048836;28;20124;-65
2023/01/22 02:58:39;;;;;;;29.40;24.13;;;;;;;-0.69;100.00;160395.66;5050139;28;20029;-66
2023/01/22 03:01:21;;;;;;;34.80;24.42;;;;;;;-0.70;100.00;160392.97;5049291;28;20052;-66
2023/01/22 03:03:52;;;;;;;28.30;22.45;;;;;;;-0.69;100.00;160395.66;5050819;28;20036;-67
2023/01/22 03:06:20;;;;;;;30.27;22.77;;;;;;;-0.73;100.00;160383.59;5048541;28;20066;-67
2023/01/22 03:08:51;;;;;;;33.08;21.70;;;;;;;-0.69;100.00;160395.66;5050562;28;20044;-66
2023/01/22 03:11:17;;;;;;;37.20;23.95;;;;;;;-0.73;100.00;160383.59;5048828;28;20041;-66
2023/01/22 03:21:54;;;;;;;32.40;23.83;;;;;;;-0.74;100.00;160382.28;5028997;28;20044;-67
2023/01/22 03:24:19;;;;;;;28.27;21.08;;;;;;;-0.76;100.00;160375.56;5030326;28;20033;-67
2023/01/22 03:26:45;;;;;;;29.05;18.98;;;;;;;-0.79;100.00;160368.88;5048054;28;20041;-67
2023/01/22 03:29:10;;;;;;;24.52;20.02;;;;;;;-0.76;100.00;160376.91;5050153;28;20035;-66
2023/01/22 03:31:35;;;;;;;21.98;18.85;;;;;;;-0.81;100.00;160363.53;5048876;28;20045;-65
2023/01/22 03:34:01;;;;;;;23.98;20.35;;;;;;;-0.77;100.00;160374.22;5049916;28;20075;-67
2023/01/22 03:36:26;;;;;;;23.73;20.23;;;;;;;-0.75;100.00;160378.25;5048499;28;20037;-65
2023/01/22 03:38:51;;;;;;;25.63;21.27;;;;;;;-0.79;100.00;160368.88;5050411;28;20025;-66
2023/01/22 03:41:17;;;;;;;30.77;23.52;;;;;;;-0.78;100.00;160371.53;5048501;28;20117;-66
2023/01/22 03:43:43;;;;;;;29.67;21.55;;;;;;;-0.81;100.00;160364.84;5050305;28;20025;-66
2023/01/22 03:46:15;;;;;;;26.60;21.02;;;;;;;-0.81;100.00;160363.53;5050311;28;20569;-65
2023/01/22 03:48:41;;;;;;;29.48;18.85;;;;;;;-0.85;100.00;160352.78;5053927;28;20032;-65
2023/01/22 03:51:14;;;;;;;28.95;21.08;;;;;;;-0.79;100.00;160368.88;5052329;28;20032;-66
2023/01/22 03:53:41;;;;;;;27.05;20.30;;;;;;;-0.79;100.00;160368.88;5053720;28;20033;-66
2023/01/22 03:56:12;;;;;;;31.67;21.17;;;;;;;-0.78;100.00;160371.53;5052087;28;20487;-67
2023/01/22 03:58:38;;;;;;;29.17;21.05;;;;;;;-0.82;100.00;160360.84;5053361;28;20033;-67
2023/01/22 04:01:06;;;;;;;22.67;18.60;;;;;;;-0.79;100.00;160368.88;5052302;28;20155;-67
2023/01/22 04:03:32;;;;;;;22.23;18.48;;;;;;;-0.78;100.00;160370.22;5053508;28;20050;-65
2023/01/22 04:06:00;;;;;;;26.70;20.67;;;;;;;-0.79;100.00;160368.88;5052159;28;20041;-69
2023/01/22 04:08:30;;;;;;;28.10;19.83;;;;;;;-0.79;100.00;160368.88;5052949;28;20715;-69
2023/01/22 04:10:56;;;;;;;23.17;18.13;;;;;;;-0.78;100.00;160371.53;5052354;28;20400;-69
2023/01/22 04:13:23;;;;;;;21.75;17.42;;;;;;;-0.79;100.00;160368.88;5052901;28;20028;-69
2023/01/22 04:15:48;;;;;;;22.48;18.05;;;;;;;-0.75;100.00;160378.25;5052219;28;20526;-69
2023/01/22 04:18:13;;;;;;;24.00;17.90;;;;;;;-0.78;100.00;160370.22;5053028;28;20044;-69
2023/01/22 04:20:39;;;;;;;23.52;18.67;;;;;;;-0.78;100.00;160370.22;5051615;28;20403;-69
2023/01/22 04:23:05;;;;;;;22.20;15.25;;;;;;;-0.78;100.00;160371.53;5053437;28;20032;-69
2023/01/22 04:25:30;;;;;;;22.25;18.38;;;;;;;-0.78;100.00;160371.53;5051402;28;20423;-69
2023/01/22 04:27:56;;;;;;;20.10;17.38;;;;;;;-0.78;100.00;160371.53;5053020;28;20399;-69
2023/01/22 04:30:21;;;;;;;22.83;16.25;;;;;;;-0.78;100.00;160370.22;5051468;28;20025;-66
2023/01/22 04:32:46;;;;;;;21.23;16.38;;;;;;;-0.81;100.00;160364.84;5053170;28;20022;-66
2023/01/22 04:35:12;;;;;;;18.88;15.98;;;;;;;-0.82;100.00;160360.84;5051194;28;20032;-66
2023/01/22 04:37:37;;;;;;;18.80;16.88;;;;;;;-0.82;100.00;160360.84;5053054;28;20142;-66
2023/01/22 04:40:04;;;;;;;20.30;15.35;;;;;;;-0.84;100.00;160355.47;5051697;28;20028;-60
2023/01/22 04:42:30;;;;;;;18.33;15.32;;;;;;;-0.83;100.00;160358.16;5052710;28;20020;-68
2023/01/22 04:44:56;;;;;;;19.63;16.35;;;;;;;-0.86;100.00;160350.16;5052877;28;20207;-68
2023/01/22 04:47:21;;;;;;;18.75;13.38;;;;;;;-0.88;100.00;160344.78;5051325;28;20455;-66
2023/01/22 04:49:47;;;;;;;19.80;15.50;;;;;;;-0.89;100.00;160342.09;5052714;28;20021;-67
2023/01/22 04:52:12;;;;;;;29.20;15.60;;;;;;;-0.87;100.00;160348.78;5051106;28;20041;-68
2023/01/22 04:54:37;;;;;;;21.00;16.08;;;;;;;-0.85;100.00;160354.16;5052439;28;20519;-69
2023/01/22 04:57:03;;;;;;;20.42;15.68;;;;;;;-0.85;100.00;160352.78;5050766;28;20056;-69
2023/01/22 04:59:28;;;;;;;19.45;17.08;;;;;;;-0.82;100.00;160360.84;5052232;28;20017;-69
2023/01/22 05:01:53;;;;;;;21.17;17.15;;;;;;;-0.80;100.00;160366.22;5051486;28;20041;-69
2023/01/22 05:04:20;;;;;;;22.42;16.83;;;;;;;-0.86;100.00;160350.16;5052322;28;20051;-69
2023/01/22 05:06:46;;;;;;;22.48;15.05;;;;;;;-0.78;100.00;160370.22;5050851;28;20128;-68
2023/01/22 05:09:11;;;;;;;19.40;15.65;;;;;;;-0.82;100.00;160360.84;5052280;28;20124;-68
2023/01/22 05:11:37;;;;;;;20.35;15.00;;;;;;;-0.82;100.00;160360.84;5051138;28;20049;-66
2023/01/22 05:14:02;;;;;;;20.88;16.63;;;;;;;-0.82;100.00;160362.16;5050890;28;20369;-68
2023/01/22 05:16:27;;;;;;;18.55;16.00;;;;;;;-0.82;100.00;160360.84;5048649;28;20197;-68
2023/01/22 05:18:53;;;;;;;21.52;18.27;;;;;;;-0.82;100.00;160360.84;5051121;28;20033;-68
2023/01/22 05:21:18;;;;;;;18.38;15.60;;;;;;;-0.88;100.00;160344.78;5050154;28;20095;-66
2023/01/22 05:23:43;;;;;;;17.67;15.57;;;;;;;-0.88;100.00;160344.78;5051189;28;20043;-66
2023/01/22 05:26:09;;;;;;;15.38;13.27;;;;;;;-0.88;100.00;160344.78;5049588;28;20033;-66
2023/01/22 05:28:34;;;;;;;17.27;14.23;;;;;;;-0.88;100.00;160344.78;5050649;28;20179;-66
2023/01/22 05:31:00;;;;;;;17.02;15.07;;;;;;;-0.89;100.00;160342.09;5050075;28;20049;-65
2023/01/22 05:33:28;;;;;;;18.88;14.93;;;;;;;-0.91;100.00;160336.72;5050383;28;20025;-66
2023/01/22 05:36:02;;;;;;;17.20;14.55;;;;;;;-0.94;100.00;160328.72;5050608;28;20575;-65
2023/01/22 05:38:29;;;;;;;21.85;16.73;;;;;;;-0.92;100.00;160335.41;5040604;28;20495;-66
2023/01/22 05:40:55;;;;;;;27.10;16.40;;;;;;;-0.91;100.00;160336.72;5048752;28;20044;-65
2023/01/22 05:43:21;;;;;;;16.73;14.27;;;;;;;-0.93;100.00;160331.41;5047298;28;20071;-65
2023/01/22 05:45:46;;;;;;;20.35;15.07;;;;;;;-0.92;100.00;160334.03;5049834;28;20044;-65
2023/01/22 05:48:12;;;;;;;18.52;14.50;;;;;;;-0.92;100.00;160334.03;5051160;28;20029;-66
2023/01/22 05:50:39;;;;;;;17.55;15.38;;;;;;;-0.93;100.00;160331.41;5048257;28;20051;-65
2023/01/22 05:53:04;;;;;;;17.35;14.18;;;;;;;-0.94;100.00;160328.72;5051156;28;20107;-66
2023/01/22 05:55:31;;;;;;;22.33;14.73;;;;;;;-0.96;100.00;160326.03;5049406;28;20052;-66
2023/01/22 05:57:56;;;;;;;13.30;11.93;;;;;;;-0.94;100.00;160328.72;5050225;28;20060;-66
2023/01/22 06:00:21;;;;;;;21.63;14.10;;;;;;;-0.91;100.00;160338.09;5060400;28;20032;-66
2023/01/22 06:02:47;;;;;;;17.27;11.85;;;;;;;-0.93;100.00;160331.41;5070120;28;20033;-65
2023/01/22 06:05:12;;;;;;;15.90;14.32;;;;;;;-0.92;100.00;160334.03;5061567;28;20017;-64
2023/01/22 06:07:37;;;;;;;13.88;12.43;;;;;;;-0.93;100.00;160331.41;5029929;28;20043;-64
2023/01/22 06:10:03;;;;;;;13.45;11.20;;;;;;;-0.94;100.00;160330.03;5042899;28;20040;-63
2023/01/22 06:12:28;;;;;;;20.35;13.07;;;;;;;-0.97;100.00;160323.34;5048970;28;20056;-64
2023/01/22 06:14:54;;;;;;;13.02;11.73;;;;;;;-1.01;100.00;160312.66;5055639;28;20021;-64
2023/01/22 06:17:20;;;;;;;19.05;12.82;;;;;;;-0.93;100.00;160331.41;5055992;28;20063;-64
2023/01/22 06:19:45;;;;;;;13.30;11.88;;;;;;;-0.91;100.00;160336.72;5063141;28;20484;-63
2023/01/22 06:22:11;;;;;;;17.65;10.77;;;;;;;-0.94;100.00;160328.72;5066324;28;20048;-63
2023/01/22 06:24:36;;;;;;;16.13;12.65;;;;;;;-1.07;100.00;160296.53;5054391;28;20028;-64
2023/01/22 06:27:02;;;;;;;12.75;11.52;;;;;;;-0.92;100.00;160334.03;5048837;28;20032;-63
2023/01/22 06:29:28;;;;;;;17.75;13.75;;;;;;;-0.94;100.00;160328.72;5048779;28;20037;-63
2023/01/22 06:31:53;;;;;;;12.48;11.18;;;;;;;-0.96;100.00;160326.03;5048406;28;20385;-64
2023/01/22 06:34:18;;;;;;;14.57;12.05;;;;;;;-0.97;100.00;160323.34;5049793;28;20082;-63
2023/01/22 06:36:44;;;;;;;15.55;11.82;;;;;;;-0.93;100.00;160332.72;5049251;28;20040;-63
2023/01/22 06:39:09;;;;;;;14.55;13.00;;;;;;;-0.94;100.00;160328.72;5051167;28;20093;-63
2023/01/22 06:41:34;;;;;;;11.77;10.57;;;;;;;-0.92;100.00;160335.41;5048245;28;20041;-63
2023/01/22 06:44:00;;;;;;;13.73;12.32;;;;;;;-0.91;100.00;160336.72;5050358;28;20429;-64
2023/01/22 06:46:25;;;;;;;20.83;13.80;;;;;;;-0.91;100.00;160336.72;5050480;28;20049;-64
2023/01/22 06:48:50;;;;;;;11.82;10.63;;;;;;;-0.91;100.00;160336.72;5049797;28;20025;-63
2023/01/22 06:51:16;;;;;;;15.80;11.75;;;;;;;-0.93;100.00;160331.41;5047663;28;20041;-63
2023/01/22 06:53:41;;;;;;;14.52;12.40;;;;;;;-0.93;100.00;160331.41;5050595;28;20036;-64
2023/01/22 06:56:07;;;;;;;13.68;12.25;;;;;;;-0.94;100.00;160330.03;5049930;28;20040;-63
2023/01/22 06:58:32;;;;;;;15.85;12.63;;;;;;;-0.94;100.00;160328.72;5052228;28;20029;-64
2023/01/22 07:01:02;;;;;;;13.07;11.68;;;;;;;-0.98;100.00;160320.66;5048780;28;20500;-63
2023/01/22 07:03:28;;;;;;;12.57;11.45;;;;;;;-0.96;100.00;160326.03;5050211;28;20502;-64
2023/01/22 07:06:02;;;;;;;14.20;12.68;;;;;;;-0.97;100.00;160322.03;5048572;28;20041;-65
2023/01/22 07:08:30;;;;;;;12.63;11.32;;;;;;;-1.02;100.00;160309.97;5029721;28;20064;-65
2023/01/22 07:10:55;;;;;;;13.93;12.02;;;;;;;-0.98;100.00;160319.34;5047322;28;20610;-64
2023/01/22 07:13:20;;;;;;;15.90;12.45;;;;;;;-0.98;100.00;160320.66;5059661;28;20033;-64
2023/01/22 07:15:46;;;;;;;13.20;11.80;;;;;;;-1.00;100.00;160315.28;5060023;28;20049;-65
2023/01/22 07:18:13;;;;;;;14.38;11.07;;;;;;;-1.05;100.00;160301.91;5060219;28;20017;-65
2023/01/22 07:20:40;;;;;;;12.60;11.25;;;;;;;-0.98;100.00;160320.66;5050186;28;20048;-64
2023/01/22 07:23:06;;;;;;;11.85;10.63;;;;;;;-0.97;100.00;160323.34;5055294;28;20037;-64
2023/01/22 07:25:31;;;;;;;13.20;11.82;;;;;;;-0.95;100.00;160327.34;5051191;28;20454;-64
2023/01/22 07:27:58;;;;;;;12.27;11.00;;;;;;;-0.94;100.00;160328.72;5052828;28;20032;-65
2023/01/22 07:30:24;;;;;;;11.90;10.63;;;;;;;-0.94;100.00;160328.72;5053005;28;20422;-64
2023/01/22 07:32:49;;;;;;;14.23;12.82;;;;;;;-0.94;100.00;160330.03;5062863;28;20036;-64
2023/01/22 07:35:14;;;;;;;12.82;10.93;;;;;;;-0.92;100.00;160335.41;5056918;28;20024;-64
2023/01/22 07:37:40;;;;;;;12.45;11.18;;;;;;;-0.93;100.00;160332.72;5057439;28;20025;-65
2023/01/22 07:40:06;;;;;;;14.85;10.80;;;;;;;-0.92;100.00;160334.03;5052012;28;20025;-64
2023/01/22 07:42:31;;;;;;;14.98;13.00;;;;;;;-0.96;100.00;160326.03;5032711;28;20626;-65
2023/01/22 07:44:56;;;;;;;12.75;10.57;;;;;;;-0.96;100.00;160326.03;5034438;28;20021;-65
2023/01/22 07:47:22;;;;;;;12.52;11.18;;;;;;;-0.91;100.00;160336.72;5052454;28;20051;-65
2023/01/22 07:49:47;;;;;;;15.73;12.35;;;;;;;-0.91;100.00;160336.72;5056061;28;20021;-65
2023/01/22 07:52:12;;;;;;;19.23;12.32;;;;;;;-0.91;100.00;160336.72;5052813;28;20056;-65
2023/01/22 07:54:38;;;;;;;14.45;11.98;;;;;;;-0.91;100.00;160336.72;5054971;28;20037;-65
2023/01/22 07:57:03;;;;;;;15.00;11.20;;;;;;;-0.89;100.00;160343.41;5051044;28;20553;-65
2023/01/22 07:59:29;;;;;;;14.10;12.27;;;;;;;-0.88;100.00;160344.78;5052923;28;20043;-66
2023/01/22 08:01:54;;;;;;;13.63;12.00;;;;;;;-0.85;100.00;160352.78;5052628;28;20126;-65
2023/01/22 08:04:20;;;;;;;17.85;13.55;;;;;;;-0.83;100.00;160358.16;5051900;28;20476;-65
2023/01/22 08:06:45;;;;;;;20.38;12.40;;;;;;;-0.79;100.00;160368.88;5051135;28;20099;-65
2023/01/22 08:09:11;;;;;;;15.05;13.00;;;;;;;-0.78;100.00;160371.53;5052762;28;20114;-65
2023/01/22 08:11:36;;;;;;;14.45;12.95;;;;;;;-0.78;100.00;160371.53;5050075;28;20041;-65
2023/01/22 08:14:01;;;;;;;15.45;13.05;;;;;;;-0.77;100.00;160374.22;5062116;28;20040;-65
2023/01/22 08:16:27;;;;;;;17.58;11.73;;;;;;;-0.79;100.00;160368.88;5042284;28;20033;-65
2023/01/22 08:18:52;;;;;;;15.80;14.07;;;;;;;-0.74;100.00;160382.28;5056428;28;20369;-65
2023/01/22 08:21:18;;;;;;;14.05;12.40;;;;;;;-0.70;100.00;160392.97;5055579;28;20044;-64
2023/01/22 08:23:43;;;;;;;15.02;11.40;;;;;;;-0.72;100.00;160387.63;5052806;28;20514;-64
2023/01/22 08:26:08;;;;;;;15.07;12.98;;;;;;;-0.69;100.00;160395.66;5060679;28;20047;-64
2023/01/22 08:28:35;;;;;;;14.65;12.57;;;;;;;-0.67;100.00;160401.03;5072847;28;20017;-64
2023/01/22 08:31:02;;;;;;;14.00;12.63;;;;;;;-0.66;100.00;160403.69;5057180;28;20041;-64
2023/01/22 08:33:30;;;;;;;13.98;12.57;;;;;;;-0.63;100.00;160410.38;5039694;28;20034;-64
2023/01/22 08:35:55;;;;;;;16.20;12.03;;;;;;;-0.61;100.00;160414.41;5041241;28;20045;-65
2023/01/22 08:38:21;;;;;;;15.13;12.43;;;;;;;-0.65;100.00;160406.38;5051980;28;20051;-65
2023/01/22 08:40:50;;;;;;;15.23;13.10;;;;;;;-0.60;100.00;160418.44;5044374;28;20045;-64
2023/01/22 08:43:16;;;;;;;17.80;14.15;;;;;;;-0.53;100.00;160435.84;5052012;28;20060;-64
2023/01/22 08:45:41;;;;;;;15.77;13.57;;;;;;;-0.55;100.00;160430.47;5050878;28;20041;-64
2023/01/22 08:48:07;;;;;;;18.52;14.13;;;;;;;-0.55;100.00;160430.47;5052065;28;20029;-64
2023/01/22 08:50:32;;;;;;;14.40;12.93;;;;;;;-0.54;100.00;160434.50;5049087;28;20041;-64
2023/01/22 08:52:57;;;;;;;16.65;13.90;;;;;;;-0.56;100.00;160427.81;5053980;28;20619;-64
2023/01/22 08:55:23;;;;;;;13.73;11.50;;;;;;;-0.55;100.00;160430.47;5069305;28;20035;-64
2023/01/22 08:57:55;;;;;;;15.93;11.52;;;;;;;-0.54;100.00;160433.16;5070077;28;20032;-64
2023/01/22 09:00:22;;;;;;;15.73;13.23;;;;;;;-0.52;100.00;160438.53;5051312;28;20448;-63
2023/01/22 09:02:47;;;;;;;15.98;13.55;;;;;;;-0.53;100.00;160435.84;5051257;28;20025;-64
2023/01/22 09:05:13;;;;;;;15.30;13.52;;;;;;;-0.54;100.00;160433.16;5049745;28;20036;-63
2023/01/22 09:07:38;;;;;;;23.30;12.85;;;;;;;-0.47;100.00;160451.91;5054331;28;20040;-63
2023/01/22 09:10:06;;;;;;;17.50;13.05;;;;;;;-0.47;100.00;160450.59;5057971;28;20049;-56
2023/01/22 09:12:32;;;;;;;16.60;12.77;;;;;;;-0.44;100.00;160458.59;5045494;28;20033;-63
2023/01/22 09:14:58;;;;;;;17.08;15.43;;;;;;;-0.44;100.00;160459.97;5051485;28;20501;-64
2023/01/22 09:17:23;;;;;;;18.33;13.57;;;;;;;-0.43;100.00;160461.28;5049588;28;20106;-63
2023/01/22 09:19:49;;;;;;;14.50;13.00;;;;;;;-0.42;100.00;160465.34;5051833;28;20021;-63
2023/01/22 09:22:14;;;;;;;16.10;12.60;;;;;;;-0.39;100.00;160473.34;5050378;28;20123;-64
2023/01/22 09:24:39;;;;;;;24.08;15.30;;;;;;;-0.38;100.00;160474.72;5051745;28;20017;-64
2023/01/22 09:27:05;;;;;;;15.00;13.35;;;;;;;-0.35;100.00;160484.09;5055311;28;20388;-63
2023/01/22 09:29:30;;;;;;;18.13;14.63;;;;;;;-0.34;100.00;160485.41;5053883;28;20438;-63
2023/01/22 09:31:56;;;;;;;19.17;14.70;;;;;;;-0.32;100.00;160492.09;5051056;28;20045;-64
2023/01/22 09:34:21;;;;;;;16.38;14.18;;;;;;;-0.28;100.00;160501.47;5051520;28;20037;-64
2023/01/22 09:36:47;;;;;;;19.73;14.02;;;;;;;-0.26;100.00;160505.53;5048848;28;20044;-64
2023/01/22 09:39:12;;;;;;;18.58;16.52;;;;;;;-0.30;100.00;160494.78;5062737;28;20521;-64
2023/01/22 09:41:45;;;;;;;18.35;15.38;;;;;;;-0.28;100.00;160501.47;5070183;28;20048;-64
2023/01/22 09:44:10;;;;;;;31.45;19.58;;;;;;;-0.23;100.00;160513.53;5062273;28;20104;-65
2023/01/22 09:46:41;;;;;;;21.52;15.88;;;;;;;-0.23;100.00;160513.53;5038930;28;20586;-64
2023/01/22 09:49:14;;;;;;;20.55;16.00;;;;;;;-0.21;100.00;160518.91;5051391;28;20024;-64
2023/01/22 09:51:39;;;;;;;15.60;13.00;;;;;;;-0.20;100.00;160521.59;5043234;28;20045;-64
2023/01/22 09:54:07;;;;;;;16.20;14.45;;;;;;;-0.20;100.00;160521.59;5032136;28;20025;-64
2023/01/22 09:56:42;;;;;;;18.73;15.97;;;;;;;-0.20;100.00;160521.59;5047354;28;20055;-64
2023/01/22 09:59:15;;;;;;;16.00;14.30;;;;;;;-0.18;100.00;160526.91;5031098;28;20035;-64
2023/01/22 10:01:41;;;;;;;20.08;16.98;;;;;;;-0.20;100.00;160521.59;5043489;28;20048;-64
2023/01/22 10:04:25;;;;;;;19.15;15.35;;;;;;;-0.18;100.00;160528.28;5067554;28;21146;-65
2023/01/22 10:06:54;;;;;;;17.33;14.32;;;;;;;-0.11;100.00;160545.69;5050957;28;20068;-65
2023/01/22 10:09:20;;;;;;;21.25;16.25;;;;;;;-0.13;100.00;160539.00;5045631;28;20033;-65
2023/01/22 10:11:51;;;;;;;17.65;15.57;;;;;;;-0.10;100.00;160548.38;5059821;28;20130;-65
2023/01/22 10:14:20;;;;;;;17.42;15.57;;;;;;;-0.09;100.00;160549.72;5067415;28;20112;-65
2023/01/22 10:16:45;;;;;;;24.00;17.38;;;;;;;-0.06;100.00;160559.13;5065147;28;20040;-65
2023/01/22 10:19:10;;;;;;;18.88;15.57;;;;;;;-0.08;100.00;160552.41;5067020;28;20211;-64
2023/01/22 10:21:45;;;;;;;19.00;14.95;;;;;;;-0.05;100.00;160560.44;5066111;28;20128;-64
2023/01/22 10:24:11;;;;;;;22.95;18.52;;;;;;;-0.06;100.00;160557.75;5066933;28;20086;-64
2023/01/22 10:26:49;;;;;;;29.77;17.63;;;;;;;0.01;100.00;160575.19;5065490;28;20045;-64
2023/01/22 10:29:26;;;;;;;16.17;14.48;;;;;;;0.05;100.00;160585.88;5067187;28;20108;-64
2023/01/22 10:31:55;;;;;;;18.67;15.30;;;;;;;0.01;100.00;160575.19;5056097;28;20068;-64
2023/01/22 10:34:29;;;;;;;19.52;16.20;;;;;;;0.01;100.00;160575.19;5066689;28;20032;-64
2023/01/22 10:36:57;;;;;;;21.90;16.08;;;;;;;0.06;100.00;160588.56;5065881;28;20049;-64
2023/01/22 10:39:22;;;;;;;22.25;17.25;;;;;;;0.03;100.00;160580.56;5065798;28;20029;-64
2023/01/22 10:41:48;;;;;;;18.88;15.63;;;;;;;0.06;100.00;160588.56;5065561;28;20098;-64
2023/01/22 10:44:22;;;;;;;25.15;15.23;;;;;;;0.09;100.00;160597.94;5067027;28;20109;-64
2023/01/22 10:46:49;;;;;;;22.77;17.42;;;;;;;0.05;100.00;160585.88;5064647;28;20089;-64
2023/01/22 10:49:17;;;;;;;17.70;15.00;;;;;;;0.06;100.00;160589.94;5066735;28;20040;-64
2023/01/22 10:51:49;;;;;;;20.30;16.90;;;;;;;0.06;100.00;160588.56;5065151;28;20045;-64
2023/01/22 10:54:38;;;;;;;19.75;14.63;;;;;;;0.02;100.00;160577.88;5065130;28;20043;-64
2023/01/22 10:57:26;;;;;;;18.45;14.82;;;;;;;0.04;100.00;160584.56;5049695;28;20135;-64
2023/01/22 10:59:58;;;;;;;17.90;14.30;;;;;;;0.02;100.00;160577.88;5065855;28;20528;-64
2023/01/22 11:02:25;;;;;;;29.88;16.98;;;;;;;0.05;100.00;160585.88;5058330;28;20120;-63
2023/01/22 11:04:51;;;;;;;19.63;16.67;;;;;;;0.05;100.00;160587.25;5045961;28;20037;-63
2023/01/22 11:07:21;;;;;;;19.10;15.82;;;;;;;0.09;100.00;160596.63;5032995;28;20519;-63
2023/01/22 11:10:10;;;;;;;27.77;17.88;;;;;;;0.09;100.00;160596.63;5026282;28;20024;-63